Time;durP1;ratioP1;P1;durP2;ratioP2;P2;SDS_P1;SDS_P2;PMS_P1;PMS_P2;Temp;Humidity;BMP_temperature;BMP_pressure;BME280_temperature;BME280_humidity;BME280_pressure;Samples;Min_cycle;Max_cycle;Signal;HPM_P1;HPM_P2
2023/12/30 00:00:24;;;;;;;6.50;0.65;;;;;;;8.00;100.00;99929.09;4930487;29;20055;-82
2023/12/30 00:02:57;;;;;;;1.00;0.60;;;;;;;7.97;100.00;99927.41;4921674;29;20051;-82
2023/12/30 00:05:28;;;;;;;0.68;0.50;;;;;;;8.00;100.00;99926.50;4931733;29;21164;-81
2023/12/30 00:07:56;;;;;;;4.60;0.95;;;;;;;7.99;100.00;99929.97;4926583;29;20076;-83
2023/12/30 00:10:23;;;;;;;1.25;0.30;;;;;;;7.97;100.00;99913.50;4932370;29;20413;-81
2023/12/30 00:12:49;;;;;;;1.65;0.50;;;;;;;7.91;100.00;99902.28;4933547;29;20443;-82
2023/12/30 00:15:16;;;;;;;0.77;0.40;;;;;;;7.88;100.00;99917.06;4937319;29;20122;-82
2023/12/30 00:17:48;;;;;;;4.18;1.15;;;;;;;7.80;100.00;99903.25;4923094;29;20051;-82
2023/12/30 00:20:15;;;;;;;1.00;0.68;;;;;;;7.79;100.00;99902.38;4925467;29;20051;-82
2023/12/30 00:22:43;;;;;;;0.40;0.20;;;;;;;7.72;100.00;99909.38;4918771;28;20044;-83
2023/12/30 00:25:11;;;;;;;1.23;0.20;;;;;;;7.73;100.00;99912.84;4934145;29;20055;-84
2023/12/30 00:27:37;;;;;;;0.32;0.22;;;;;;;7.68;100.00;99909.41;4904910;29;20062;-81
2023/12/30 00:30:12;;;;;;;0.20;0.20;;;;;;;7.62;100.00;99924.22;4918353;29;20071;-84
2023/12/30 00:32:39;;;;;;;3.30;0.38;;;;;;;7.55;100.00;99919.97;4906113;29;20456;-83
2023/12/30 00:35:08;;;;;;;2.22;0.20;;;;;;;7.58;100.00;99917.31;4946336;29;20047;-87
2023/12/30 00:37:39;;;;;;;0.30;0.30;;;;;;;7.58;100.00;99925.13;4935678;28;20040;-82
2023/12/30 00:40:07;;;;;;;1.05;0.40;;;;;;;7.59;100.00;99910.38;4895885;29;20102;-83
2023/12/30 00:42:37;;;;;;;3.15;0.32;;;;;;;7.53;100.00;99895.66;4922785;29;20055;-81
2023/12/30 00:45:09;;;;;;;0.65;0.17;;;;;;;7.56;100.00;99918.22;4933636;29;20047;-81
2023/12/30 00:47:37;;;;;;;1.88;0.20;;;;;;;7.54;100.00;99914.78;4919303;29;20046;-82
2023/12/30 00:50:05;;;;;;;2.08;0.20;;;;;;;7.49;100.00;99922.59;4920669;29;20138;-79
2023/12/30 00:52:33;;;;;;;1.35;0.20;;;;;;;7.50;100.00;99934.75;4933403;29;20047;-83
2023/12/30 00:55:00;;;;;;;0.50;0.20;;;;;;;7.49;100.00;99939.97;4935163;29;20040;-79
2023/12/30 00:57:27;;;;;;;0.50;0.10;;;;;;;7.50;100.00;99949.53;4923404;29;20055;-80
2023/12/30 00:59:53;;;;;;;4.95;0.20;;;;;;;7.49;100.00;99940.84;4943724;29;20079;-83
2023/12/30 01:02:20;;;;;;;0.40;0.13;;;;;;;7.53;100.00;99954.72;4922926;29;20055;-83
2023/12/30 01:04:51;;;;;;;0.95;0.10;;;;;;;7.54;100.00;99956.44;4922660;29;20051;-83
2023/12/30 01:07:23;;;;;;;4.95;0.25;;;;;;;7.53;100.00;99960.78;4919891;29;20051;-82
2023/12/30 01:09:52;;;;;;;1.48;0.38;;;;;;;7.54;100.00;99959.03;4901446;29;20133;-82
2023/12/30 01:12:21;;;;;;;1.77;0.30;;;;;;;7.54;100.00;99966.84;4920428;29;20407;-81
2023/12/30 01:14:51;;;;;;;9.02;0.85;;;;;;;7.49;100.00;99979.06;4931002;29;20059;-82
2023/12/30 01:17:19;;;;;;;0.45;0.10;;;;;;;7.41;100.00;99966.94;4916188;29;20054;-83
2023/12/30 01:19:45;;;;;;;0.30;0.20;;;;;;;7.40;100.00;99967.81;4924949;29;20094;-84
2023/12/30 01:22:14;;;;;;;0.93;0.10;;;;;;;7.34;100.00;99956.56;4917412;29;20142;-82
2023/12/30 01:24:45;;;;;;;0.55;0.20;;;;;;;7.24;100.00;99964.44;4912956;29;20075;-82
2023/12/30 01:27:12;;;;;;;0.20;0.20;;;;;;;7.18;100.00;99972.28;4933398;29;20118;-83
2023/12/30 01:29:39;;;;;;;1.38;0.15;;;;;;;7.16;100.00;99973.16;4933306;29;20043;-82
2023/12/30 01:32:09;;;;;;;0.35;0.20;;;;;;;7.06;100.00;99978.44;4934794;29;20057;-81
2023/12/30 01:34:39;;;;;;;0.40;0.17;;;;;;;7.06;100.00;99993.19;4932099;29;20126;-84
2023/12/30 01:37:05;;;;;;;0.30;0.15;;;;;;;7.05;100.00;99997.53;4934042;29;20055;-80
2023/12/30 01:39:32;;;;;;;1.77;0.10;;;;;;;7.02;100.00;100000.13;4921460;29;20852;-82
2023/12/30 01:41:58;;;;;;;1.50;0.10;;;;;;;7.03;100.00;99998.44;4908365;29;20154;-82
2023/12/30 01:44:25;;;;;;;1.70;0.20;;;;;;;7.05;100.00;99997.53;4911300;29;21016;-83
2023/12/30 01:46:51;;;;;;;1.23;0.20;;;;;;;7.01;100.00;100005.38;4910779;29;20064;-81
2023/12/30 01:49:18;;;;;;;0.98;0.10;;;;;;;6.98;100.00;100005.38;4914156;29;20069;-82
2023/12/30 01:51:46;;;;;;;0.13;0.10;;;;;;;6.91;100.00;100009.72;4909093;29;20117;-83
2023/12/30 01:54:13;;;;;;;1.42;0.03;;;;;;;6.88;100.00;100010.63;4911149;29;20053;-83
2023/12/30 01:56:40;;;;;;;1.52;0.40;;;;;;;6.85;100.00;100013.22;4909293;29;20408;-83
2023/12/30 01:59:06;;;;;;;0.82;0.25;;;;;;;6.82;100.00;100017.56;4938049;29;20047;-82
2023/12/30 02:01:33;;;;;;;0.73;0.22;;;;;;;6.78;100.00;100015.00;4920838;29;20079;-83
2023/12/30 02:03:59;;;;;;;0.82;0.10;;;;;;;6.74;100.00;100026.28;4908214;29;20056;-81
2023/12/30 02:06:26;;;;;;;0.90;0.20;;;;;;;6.75;100.00;100028.03;4940248;28;20051;-81
2023/12/30 02:08:53;;;;;;;2.53;0.10;;;;;;;6.79;100.00;100013.25;4915546;29;20077;-81
2023/12/30 02:11:19;;;;;;;0.57;0.30;;;;;;;6.90;100.00;100029.69;4938426;29;20099;-82
2023/12/30 02:13:46;;;;;;;1.15;0.20;;;;;;;6.93;100.00;100042.66;4930658;29;20047;-83
2023/12/30 02:16:12;;;;;;;1.48;0.20;;;;;;;6.98;100.00;100049.63;4922649;29;20061;-83
2023/12/30 02:18:39;;;;;;;0.82;0.28;;;;;;;6.99;100.00;100044.41;4915658;29;20047;-82
2023/12/30 02:21:06;;;;;;;1.83;0.22;;;;;;;6.97;100.00;100040.94;4926931;29;20898;-82
2023/12/30 02:23:32;;;;;;;0.75;0.60;;;;;;;6.96;100.00;100041.78;4915909;29;20390;-82
2023/12/30 02:25:59;;;;;;;4.25;0.30;;;;;;;6.97;100.00;100053.09;4928282;29;20548;-83
2023/12/30 02:28:25;;;;;;;2.67;0.40;;;;;;;6.90;100.00;100053.09;4925126;29;20142;-83
2023/12/30 02:30:55;;;;;;;2.35;0.50;;;;;;;6.86;100.00;100055.75;4912405;29;20071;-83
2023/12/30 02:33:21;;;;;;;3.83;0.32;;;;;;;6.80;100.00;100056.59;4913948;29;20062;-82
2023/12/30 02:35:48;;;;;;;1.25;0.28;;;;;;;6.79;100.00;100058.34;4925779;29;20052;-82
2023/12/30 02:38:14;;;;;;;4.57;0.70;;;;;;;6.79;100.00;100054.88;4931382;29;20731;-81
2023/12/30 02:40:44;;;;;;;2.22;0.47;;;;;;;6.77;100.00;100070.50;4906810;29;20052;-82
2023/12/30 02:43:14;;;;;;;2.45;0.30;;;;;;;6.68;100.00;100061.84;4911887;29;20503;-83
2023/12/30 02:45:41;;;;;;;3.30;0.98;;;;;;;6.70;100.00;100073.09;4928518;29;20040;-83
2023/12/30 02:48:07;;;;;;;0.85;0.43;;;;;;;6.76;100.00;100083.50;4911023;29;20148;-82
2023/12/30 02:50:34;;;;;;;0.47;0.35;;;;;;;6.79;100.00;100086.09;4916488;29;20500;-81
2023/12/30 02:53:02;;;;;;;1.20;0.50;;;;;;;6.74;100.00;100085.22;4926865;29;20098;-80
2023/12/30 02:55:29;;;;;;;5.15;1.23;;;;;;;6.72;100.00;100087.00;4912461;29;20401;-82
2023/12/30 02:57:55;;;;;;;3.15;0.50;;;;;;;6.66;100.00;100084.38;4924337;29;20528;-81
2023/12/30 03:00:24;;;;;;;0.52;0.30;;;;;;;6.61;100.00;100081.81;4925350;29;20058;-81
2023/12/30 03:02:51;;;;;;;0.43;0.38;;;;;;;6.55;100.00;100094.81;4928050;29;20475;-82
2023/12/30 03:05:17;;;;;;;2.70;0.30;;;;;;;6.52;100.00;100098.28;4912532;28;20047;-82
2023/12/30 03:07:44;;;;;;;0.50;0.30;;;;;;;6.55;100.00;100097.44;4912416;29;20097;-82
2023/12/30 03:10:13;;;;;;;0.88;0.40;;;;;;;6.50;100.00;100107.81;4912403;29;20394;-83
2023/12/30 03:12:40;;;;;;;2.17;0.60;;;;;;;6.52;100.00;100108.69;4927550;29;20094;-84
2023/12/30 03:15:07;;;;;;;5.10;0.50;;;;;;;6.44;100.00;100107.81;4925931;29;20146;-81
2023/12/30 03:17:34;;;;;;;2.25;0.63;;;;;;;6.49;100.00;100113.88;4927840;29;20059;-81
2023/12/30 03:20:04;;;;;;;2.30;0.65;;;;;;;6.48;100.00;100113.88;4917039;29;20055;-81
2023/12/30 03:22:32;;;;;;;2.47;0.30;;;;;;;6.50;100.00;100123.41;4930783;29;20054;-83
2023/12/30 03:24:58;;;;;;;3.28;0.70;;;;;;;6.50;100.00;100112.16;4942085;28;20047;-83
2023/12/30 03:27:25;;;;;;;8.25;0.52;;;;;;;6.51;100.00;100113.91;4922678;29;20505;-83
2023/12/30 03:29:52;;;;;;;1.38;0.32;;;;;;;6.52;100.00;100118.22;4914016;29;20142;-81
2023/12/30 03:32:18;;;;;;;5.07;0.50;;;;;;;6.44;100.00;100113.00;4930164;29;20051;-82
2023/12/30 03:34:48;;;;;;;4.30;1.50;;;;;;;6.50;100.00;100120.81;4922858;29;20056;-82
2023/12/30 03:37:18;;;;;;;1.50;0.38;;;;;;;6.50;100.00;100130.38;4934519;29;20051;-83
2023/12/30 03:39:44;;;;;;;3.55;0.30;;;;;;;6.47;100.00;100118.22;4914346;29;20083;-82
2023/12/30 03:42:16;;;;;;;2.50;0.47;;;;;;;6.51;100.00;100129.50;4914871;29;20516;-82
2023/12/30 03:44:45;;;;;;;2.38;0.40;;;;;;;6.50;100.00;100133.81;4929863;29;20039;-81
2023/12/30 03:47:11;;;;;;;4.90;1.10;;;;;;;6.43;100.00;100140.75;4941279;29;20509;-81
2023/12/30 03:49:44;;;;;;;1.15;0.57;;;;;;;6.45;100.00;100143.34;4911517;29;20055;-81
2023/12/30 03:52:16;;;;;;;0.75;0.50;;;;;;;6.43;100.00;100147.72;4939410;29;20146;-83
2023/12/30 03:54:43;;;;;;;0.75;0.22;;;;;;;6.45;100.00;100157.25;4929540;29;20413;-83
2023/12/30 03:57:09;;;;;;;3.90;0.60;;;;;;;6.48;100.00;100155.50;4930881;29;20071;-82
2023/12/30 03:59:38;;;;;;;2.05;0.90;;;;;;;6.49;100.00;100150.28;4940251;29;20102;-81
2023/12/30 04:02:04;;;;;;;1.17;0.45;;;;;;;6.48;100.00;100151.19;4914464;29;20078;-82
2023/12/30 04:04:31;;;;;;;6.10;0.82;;;;;;;6.45;100.00;100152.03;4928348;29;20079;-83
2023/12/30 04:06:58;;;;;;;3.70;0.55;;;;;;;6.43;100.00;100158.09;4922656;29;20765;-83
2023/12/30 04:09:26;;;;;;;3.38;0.70;;;;;;;6.42;100.00;100162.41;4926045;29;20062;-81
2023/12/30 04:11:53;;;;;;;1.13;0.30;;;;;;;6.38;100.00;100158.09;4910898;29;20082;-84
2023/12/30 04:14:22;;;;;;;4.53;0.70;;;;;;;6.36;100.00;100152.03;4938050;29;20146;-83
2023/12/30 04:16:48;;;;;;;5.00;0.52;;;;;;;6.37;100.00;100158.09;4944114;29;20166;-81
2023/12/30 04:19:16;;;;;;;1.20;0.35;;;;;;;6.39;100.00;100165.03;4929908;29;20056;-81
2023/12/30 04:21:43;;;;;;;1.25;1.02;;;;;;;6.33;100.00;100164.16;4926297;29;20509;-82
2023/12/30 04:24:10;;;;;;;3.40;0.45;;;;;;;6.32;100.00;100155.47;4921814;29;20043;-81
2023/12/30 04:26:38;;;;;;;1.90;0.35;;;;;;;6.35;100.00;100163.31;4914063;29;20040;-82
2023/12/30 04:29:04;;;;;;;1.50;0.65;;;;;;;6.35;100.00;100170.22;4929822;28;20047;-81
2023/12/30 04:31:31;;;;;;;5.85;1.92;;;;;;;6.29;100.00;100164.16;4927628;29;20059;-81
2023/12/30 04:33:58;;;;;;;3.28;0.60;;;;;;;6.31;100.00;100163.28;4925664;29;20111;-82
2023/12/30 04:36:27;;;;;;;0.88;0.30;;;;;;;6.29;100.00;100171.94;4941155;29;20046;-82
2023/12/30 04:38:53;;;;;;;0.88;0.40;;;;;;;6.33;100.00;100152.03;4921635;29;20070;-81
2023/12/30 04:41:20;;;;;;;1.88;0.55;;;;;;;6.34;100.00;100160.72;4908688;29;20707;-81
2023/12/30 04:43:46;;;;;;;2.40;0.50;;;;;;;6.34;100.00;100164.16;4913676;29;20059;-80
2023/12/30 04:46:13;;;;;;;3.25;0.60;;;;;;;6.29;100.00;100165.88;4915820;29;20427;-81
2023/12/30 04:48:40;;;;;;;7.80;0.77;;;;;;;6.31;100.00;100155.50;4925140;29;20051;-82
2023/12/30 04:51:07;;;;;;;2.83;0.77;;;;;;;6.35;100.00;100172.81;4914514;29;20051;-83
2023/12/30 04:53:36;;;;;;;1.55;0.52;;;;;;;6.32;100.00;100183.22;4908718;29;20524;-83
2023/12/30 04:56:04;;;;;;;4.47;0.73;;;;;;;6.30;100.00;100178.03;4926552;29;20599;-81
2023/12/30 04:58:36;;;;;;;5.22;0.75;;;;;;;6.29;100.00;100189.28;4906435;29;20051;-81
2023/12/30 05:01:05;;;;;;;5.68;0.75;;;;;;;6.31;100.00;100187.56;4928557;29;20055;-81
2023/12/30 05:03:38;;;;;;;5.30;0.43;;;;;;;6.32;100.00;100193.63;4926077;29;20051;-81
2023/12/30 05:06:07;;;;;;;6.72;0.77;;;;;;;6.30;100.00;100188.44;4913074;29;20054;-82
2023/12/30 05:08:35;;;;;;;2.97;0.45;;;;;;;6.29;100.00;100199.69;4930582;29;20055;-82
2023/12/30 05:11:06;;;;;;;3.55;0.55;;;;;;;6.28;100.00;100205.75;4912914;29;20043;-81
2023/12/30 05:13:32;;;;;;;2.80;0.90;;;;;;;6.24;100.00;100201.41;4913051;29;20059;-82
2023/12/30 05:15:59;;;;;;;8.15;1.27;;;;;;;6.25;100.00;100205.75;4908885;29;20063;-81
2023/12/30 05:18:26;;;;;;;6.18;0.75;;;;;;;6.24;100.00;100198.81;4924048;29;20056;-81
2023/12/30 05:20:52;;;;;;;1.60;0.80;;;;;;;6.25;100.00;100204.00;4922198;29;20441;-83
2023/12/30 05:23:21;;;;;;;2.67;0.88;;;;;;;6.24;100.00;100199.66;4900885;29;20138;-83
2023/12/30 05:25:49;;;;;;;3.30;0.60;;;;;;;6.26;100.00;100210.09;4923615;29;20461;-81
2023/12/30 05:28:18;;;;;;;6.07;0.65;;;;;;;6.32;100.00;100206.63;4910299;29;20055;-81
2023/12/30 05:30:45;;;;;;;5.65;0.50;;;;;;;6.40;100.00;100216.16;4928083;29;20055;-82
2023/12/30 05:33:11;;;;;;;1.67;0.45;;;;;;;6.41;100.00;100209.22;4933157;29;20051;-81
2023/12/30 05:35:40;;;;;;;14.55;1.98;;;;;;;6.43;100.00;100218.75;4912988;29;20060;-83
2023/12/30 05:38:07;;;;;;;7.43;1.20;;;;;;;6.48;100.00;100218.78;4936852;29;20496;-82
2023/12/30 05:40:34;;;;;;;5.95;0.95;;;;;;;6.48;100.00;100226.59;4915493;29;20093;-81
2023/12/30 05:43:06;;;;;;;6.35;1.67;;;;;;;6.51;100.00;100226.56;4934126;29;20054;-82
2023/12/30 05:45:32;;;;;;;9.02;1.30;;;;;;;6.55;100.00;100230.03;4948050;29;20113;-81
2023/12/30 05:48:00;;;;;;;7.57;1.45;;;;;;;6.60;100.00;100233.53;4912308;29;20104;-81
2023/12/30 05:50:27;;;;;;;13.07;2.78;;;;;;;6.60;100.00;100230.91;4929770;29;20110;-82
2023/12/30 05:52:54;;;;;;;5.85;0.77;;;;;;;6.64;100.00;100231.78;4929975;29;20094;-81
2023/12/30 05:55:24;;;;;;;4.18;0.90;;;;;;;6.62;100.00;100226.56;4927071;29;20067;-82
2023/12/30 05:57:53;;;;;;;3.10;0.77;;;;;;;6.65;100.00;100237.00;4914466;29;20466;-81
2023/12/30 06:00:27;;;;;;;7.20;1.23;;;;;;;6.71;100.00;100246.53;4914477;29;20052;-84
2023/12/30 06:02:54;;;;;;;;;;;;;;;6.75;100.00;100249.13;4915354;29;20142;-83
2023/12/30 06:05:25;;;;;;;5.32;2.45;;;;;;;6.72;100.00;100249.13;4919530;29;20426;-84
2023/12/30 06:07:52;;;;;;;3.28;1.00;;;;;;;6.72;100.00;100256.06;4931065;29;20070;-82
2023/12/30 06:10:20;;;;;;;4.63;1.38;;;;;;;6.65;100.00;100257.81;4940570;29;20135;-80
2023/12/30 06:12:49;;;;;;;5.00;1.80;;;;;;;6.61;100.00;100267.31;4924244;29;20039;-82
2023/12/30 06:15:16;;;;;;;4.30;2.25;;;;;;;6.55;100.00;100262.09;4941763;29;20085;-81
2023/12/30 06:17:43;;;;;;;8.98;1.55;;;;;;;6.53;100.00;100266.47;4929459;29;20055;-82
2023/12/30 06:20:11;;;;;;;10.25;1.88;;;;;;;6.52;100.00;100267.31;4945153;29;20052;-82
2023/12/30 06:22:37;;;;;;;5.75;1.45;;;;;;;6.50;100.00;100274.25;4917616;29;20055;-83
2023/12/30 06:25:04;;;;;;;13.10;2.80;;;;;;;6.51;100.00;100275.13;4918709;29;20078;-81
2023/12/30 06:27:31;;;;;;;5.88;1.10;;;;;;;6.50;100.00;100270.78;4923284;29;20066;-83
2023/12/30 06:29:57;;;;;;;5.63;1.25;;;;;;;6.47;100.00;100276.84;4916445;29;20059;-81
2023/12/30 06:32:24;;;;;;;7.82;1.20;;;;;;;6.45;100.00;100276.84;4915300;29;20475;-81
2023/12/30 06:34:50;;;;;;;6.70;1.60;;;;;;;6.49;100.00;100287.25;4930958;29;20632;-81
2023/12/30 06:37:17;;;;;;;7.53;2.67;;;;;;;6.51;100.00;100285.53;4918101;29;20040;-84
2023/12/30 06:39:44;;;;;;;6.70;1.60;;;;;;;6.47;100.00;100287.25;4944699;29;20466;-83
2023/12/30 06:42:11;;;;;;;2.38;1.48;;;;;;;6.49;100.00;100292.44;4929670;29;20063;-83
2023/12/30 06:44:38;;;;;;;7.80;1.52;;;;;;;6.51;100.00;100295.94;4932824;29;20058;-81
2023/12/30 06:47:06;;;;;;;5.78;2.13;;;;;;;6.53;100.00;100291.56;4945543;29;20039;-81
2023/12/30 06:49:32;;;;;;;8.82;2.80;;;;;;;6.50;100.00;100294.19;4936813;29;20044;-83
2023/12/30 06:52:04;;;;;;;9.65;2.10;;;;;;;6.52;100.00;100306.31;4947694;28;20131;-82
2023/12/30 06:54:33;;;;;;;4.38;1.65;;;;;;;6.50;100.00;100304.59;4944293;28;20047;-82
2023/12/30 06:57:00;;;;;;;6.53;2.25;;;;;;;6.48;100.00;100306.31;4915421;29;20434;-83
2023/12/30 06:59:26;;;;;;;7.38;3.22;;;;;;;6.44;100.00;100302.81;4925157;29;20098;-81
2023/12/30 07:01:53;;;;;;;4.55;1.67;;;;;;;6.46;100.00;100308.91;4930967;29;20085;-81
2023/12/30 07:04:26;;;;;;;7.45;1.85;;;;;;;6.42;100.00;100321.03;4928001;29;20098;-83
2023/12/30 07:06:53;;;;;;;3.92;1.25;;;;;;;6.44;100.00;100329.72;4914420;29;20745;-82
2023/12/30 07:09:24;;;;;;;8.93;1.65;;;;;;;6.46;100.00;100322.75;4928898;29;20146;-83
2023/12/30 07:11:51;;;;;;;3.78;1.67;;;;;;;6.49;100.00;100331.44;4930322;29;20452;-81
2023/12/30 07:14:17;;;;;;;5.55;1.42;;;;;;;6.51;100.00;100332.34;4932427;29;20069;-83
2023/12/30 07:16:49;;;;;;;6.63;1.88;;;;;;;6.48;100.00;100332.31;4915725;28;20047;-82
2023/12/30 07:19:16;;;;;;;10.70;2.53;;;;;;;6.51;100.00;100333.19;4931847;29;20085;-83
2023/12/30 07:21:43;;;;;;;8.02;1.83;;;;;;;6.50;100.00;100331.44;4917053;29;20054;-83
2023/12/30 07:24:10;;;;;;;4.05;1.40;;;;;;;6.45;100.00;100336.66;4914812;29;20047;-83
2023/12/30 07:26:37;;;;;;;5.35;1.05;;;;;;;6.54;100.00;100335.78;4922364;29;20039;-83
2023/12/30 07:29:06;;;;;;;2.42;1.95;;;;;;;6.56;100.00;100339.28;4940125;29;20082;-82
2023/12/30 07:31:32;;;;;;;12.38;2.05;;;;;;;6.55;100.00;100341.88;4922766;29;20106;-83
2023/12/30 07:34:04;;;;;;;3.70;1.40;;;;;;;6.52;100.00;100337.53;4923327;29;20079;-82
2023/12/30 07:36:31;;;;;;;8.15;1.92;;;;;;;6.51;100.00;100346.19;4920100;29;20141;-83
2023/12/30 07:38:59;;;;;;;7.35;2.33;;;;;;;6.54;100.00;100335.78;4898748;29;20044;-82
2023/12/30 07:41:29;;;;;;;6.53;1.75;;;;;;;6.60;100.00;100340.16;4935765;29;20046;-84
2023/12/30 07:43:57;;;;;;;8.40;1.90;;;;;;;6.59;100.00;100328.88;4941034;29;20036;-83
2023/12/30 07:46:25;;;;;;;5.50;2.05;;;;;;;6.64;100.00;100343.63;4913047;29;20039;-84
2023/12/30 07:48:53;;;;;;;7.97;2.25;;;;;;;6.66;100.00;100349.69;4920149;29;20051;-83
2023/12/30 07:51:25;;;;;;;4.45;1.52;;;;;;;6.70;100.00;100351.44;4937122;28;20043;-83
2023/12/30 07:53:54;;;;;;;4.68;1.85;;;;;;;6.66;100.00;100360.94;4954845;29;20037;-81
2023/12/30 07:56:24;;;;;;;12.85;2.33;;;;;;;6.69;100.00;100362.69;4929526;28;20024;-83
2023/12/30 07:58:52;;;;;;;7.43;2.05;;;;;;;6.62;100.00;100356.63;4944992;29;20035;-83
2023/12/30 08:01:24;;;;;;;3.10;1.83;;;;;;;6.61;100.00;100360.97;4958349;29;20122;-82
2023/12/30 08:03:51;;;;;;;10.75;3.47;;;;;;;6.63;100.00;100363.56;4917820;29;20062;-83
2023/12/30 08:06:18;;;;;;;6.00;1.80;;;;;;;6.71;100.00;100381.78;4916844;29;20043;-83
2023/12/30 08:08:47;;;;;;;7.80;1.77;;;;;;;6.67;100.00;100370.50;4931677;29;20085;-84
2023/12/30 08:11:14;;;;;;;3.97;1.45;;;;;;;6.72;100.00;100370.53;4913642;29;20147;-84
2023/12/30 08:13:41;;;;;;;4.68;2.20;;;;;;;6.72;100.00;100366.19;4923046;29;20123;-83
2023/12/30 08:16:10;;;;;;;5.20;1.23;;;;;;;6.78;100.00;100371.41;4917402;29;20047;-83
2023/12/30 08:18:40;;;;;;;7.20;1.90;;;;;;;6.75;100.00;100368.81;4913315;29;20047;-83
2023/12/30 08:21:06;;;;;;;9.02;2.75;;;;;;;6.79;100.00;100382.66;4929722;29;20044;-82
2023/12/30 08:23:33;;;;;;;6.10;2.17;;;;;;;6.86;100.00;100380.97;4909840;29;20077;-84
2023/12/30 08:25:59;;;;;;;5.85;1.85;;;;;;;6.85;100.00;100387.03;4912212;29;20508;-83
2023/12/30 08:28:26;;;;;;;6.50;1.52;;;;;;;6.83;100.00;100383.53;4927259;29;20500;-84
2023/12/30 08:30:54;;;;;;;5.05;1.27;;;;;;;6.88;100.00;100397.44;4912176;29;20123;-82
2023/12/30 08:33:21;;;;;;;5.10;1.77;;;;;;;6.88;100.00;100395.72;4930458;29;20055;-81
2023/12/30 08:35:51;;;;;;;12.43;2.55;;;;;;;6.92;100.00;100389.66;4923670;29;20413;-81
2023/12/30 08:38:20;;;;;;;2.17;1.83;;;;;;;6.97;100.00;100383.59;4937589;29;20086;-84
2023/12/30 08:40:47;;;;;;;10.70;2.65;;;;;;;7.03;100.00;100399.22;4917945;29;20051;-83
2023/12/30 08:43:13;;;;;;;9.45;1.95;;;;;;;7.02;100.00;100400.94;4928811;29;20052;-83
2023/12/30 08:45:40;;;;;;;7.75;2.00;;;;;;;7.08;100.00;100400.09;4912034;29;20050;-84
2023/12/30 08:48:07;;;;;;;6.40;2.78;;;;;;;7.07;100.00;100400.94;4898882;29;20047;-84
2023/12/30 08:50:34;;;;;;;4.00;1.98;;;;;;;7.07;100.00;100386.19;4911911;29;20090;-81
2023/12/30 08:53:01;;;;;;;4.25;1.73;;;;;;;7.13;100.00;100408.75;4930380;29;20288;-81
2023/12/30 08:55:27;;;;;;;4.47;1.23;;;;;;;7.12;100.00;100394.88;4911350;29;20047;-83
2023/12/30 08:57:54;;;;;;;3.97;1.77;;;;;;;7.12;100.00;100405.28;4923474;29;20408;-84
2023/12/30 09:00:21;;;;;;;4.88;1.88;;;;;;;7.19;100.00;100415.72;4929037;29;20043;-83
2023/12/30 09:02:48;;;;;;;10.43;3.63;;;;;;;7.17;100.00;100413.13;4931818;29;20046;-81
2023/12/30 09:05:19;;;;;;;5.05;1.98;;;;;;;7.30;100.00;100416.59;4927161;29;20051;-81
2023/12/30 09:07:48;;;;;;;9.38;2.80;;;;;;;7.28;100.00;100413.97;4928756;29;20707;-81
2023/12/30 09:10:16;;;;;;;19.13;2.88;;;;;;;7.21;100.00;100414.84;4911091;29;20047;-84
2023/12/30 09:12:42;;;;;;;7.97;2.35;;;;;;;7.37;100.00;100431.34;4909083;29;20074;-83
2023/12/30 09:15:09;;;;;;;8.00;3.00;;;;;;;7.29;100.00;100428.72;4925522;29;20051;-82
2023/12/30 09:17:36;;;;;;;5.05;1.67;;;;;;;7.28;100.00;100445.22;4931029;29;20035;-81
2023/12/30 09:20:03;;;;;;;6.18;1.60;;;;;;;7.33;100.00;100437.41;4935568;29;20583;-81
2023/12/30 09:22:30;;;;;;;9.00;2.78;;;;;;;7.38;100.00;100442.59;4935180;29;20063;-81
2023/12/30 09:24:57;;;;;;;8.25;2.22;;;;;;;7.45;100.00;100449.56;4933508;29;20517;-82
2023/12/30 09:27:26;;;;;;;7.47;2.47;;;;;;;7.43;100.00;100466.94;4941929;29;20039;-82
2023/12/30 09:29:52;;;;;;;5.10;2.28;;;;;;;7.49;100.00;100460.88;4944273;29;20043;-84
2023/12/30 09:32:19;;;;;;;12.70;2.03;;;;;;;7.43;99.70;100446.09;4925446;29;20051;-82
2023/12/30 09:34:45;;;;;;;5.78;1.95;;;;;;;7.44;99.50;100453.03;4915444;29;20127;-83
2023/12/30 09:37:14;;;;;;;4.38;2.00;;;;;;;7.39;99.33;100466.06;4917508;29;20515;-81
2023/12/30 09:39:42;;;;;;;8.05;2.35;;;;;;;7.40;98.88;100461.72;4944193;29;20110;-82
2023/12/30 09:42:08;;;;;;;3.70;2.05;;;;;;;7.41;98.71;100466.94;4909528;29;20066;-83
2023/12/30 09:44:35;;;;;;;3.20;2.17;;;;;;;7.40;98.58;100465.19;4923022;29;20505;-83
2023/12/30 09:47:07;;;;;;;8.95;2.45;;;;;;;7.49;97.90;100474.75;4912887;29;20493;-82
2023/12/30 09:49:38;;;;;;;3.25;2.00;;;;;;;7.59;97.01;100467.81;4925202;29;20043;-81
2023/12/30 09:52:06;;;;;;;6.85;2.38;;;;;;;7.57;96.49;100473.03;4929556;29;20162;-83
2023/12/30 09:54:36;;;;;;;9.32;2.78;;;;;;;7.78;95.30;100466.06;4929988;29;20138;-83
2023/12/30 09:57:03;;;;;;;7.78;1.65;;;;;;;7.87;95.49;100473.03;4942168;29;20463;-81
2023/12/30 09:59:35;;;;;;;4.75;1.50;;;;;;;8.05;95.36;100478.22;4923600;29;20142;-82
2023/12/30 10:02:06;;;;;;;6.35;1.83;;;;;;;8.01;94.88;100478.22;4912898;29;20051;-82
2023/12/30 10:04:32;;;;;;;3.03;1.48;;;;;;;8.25;94.63;100480.78;4910039;29;20151;-82
2023/12/30 10:06:59;;;;;;;14.82;3.67;;;;;;;8.01;94.20;100483.44;4926478;29;20505;-82
2023/12/30 10:09:25;;;;;;;3.22;1.73;;;;;;;8.07;93.15;100486.03;4914468;29;20087;-82
2023/12/30 10:11:54;;;;;;;6.90;2.28;;;;;;;8.06;93.31;100484.31;4910194;29;20055;-83
2023/12/30 10:14:21;;;;;;;4.15;1.55;;;;;;;7.98;91.57;100481.72;4936324;29;20075;-82
2023/12/30 10:16:48;;;;;;;3.40;1.55;;;;;;;7.95;91.89;100489.50;4910851;29;20048;-82
2023/12/30 10:19:16;;;;;;;4.32;1.33;;;;;;;7.97;90.43;100479.09;4922561;29;20086;-82
2023/12/30 10:21:43;;;;;;;4.63;1.70;;;;;;;8.01;90.02;100486.06;4926568;29;20066;-81
2023/12/30 10:24:10;;;;;;;2.15;1.17;;;;;;;8.04;90.02;100481.69;4925374;29;20513;-82
2023/12/30 10:26:39;;;;;;;6.20;1.90;;;;;;;8.06;89.54;100481.69;4921235;29;20043;-81
2023/12/30 10:29:12;;;;;;;7.03;2.40;;;;;;;8.09;89.48;100494.72;4915608;29;20102;-83
2023/12/30 10:31:39;;;;;;;5.65;1.67;;;;;;;8.13;89.75;100491.22;4914900;29;20058;-83
2023/12/30 10:34:06;;;;;;;3.92;1.77;;;;;;;8.29;89.34;100486.84;4926906;29;20054;-83
2023/12/30 10:36:35;;;;;;;10.75;1.80;;;;;;;8.12;90.04;100489.50;4928300;29;20102;-82
2023/12/30 10:39:03;;;;;;;8.82;2.28;;;;;;;8.18;90.25;100480.81;4918826;29;20046;-81
2023/12/30 10:41:33;;;;;;;7.93;1.70;;;;;;;8.16;89.84;100477.31;4930458;29;20059;-81
2023/12/30 10:43:59;;;;;;;3.75;1.48;;;;;;;8.25;89.61;100483.41;4933806;29;20153;-83
2023/12/30 10:46:27;;;;;;;6.00;2.05;;;;;;;8.34;88.91;100484.25;4916460;29;20126;-83
2023/12/30 10:48:58;;;;;;;5.53;2.05;;;;;;;8.41;88.69;100489.44;4930525;29;20051;-83
2023/12/30 10:51:27;;;;;;;9.00;1.73;;;;;;;8.27;88.84;100494.69;4932242;29;20043;-83
2023/12/30 10:54:14;;;;;;;4.45;1.45;;;;;;;8.16;88.13;100485.16;4913296;29;20160;-82
2023/12/30 10:56:46;;;;;;;2.17;1.58;;;;;;;8.39;88.16;100490.31;4915332;29;20052;-82
2023/12/30 10:59:14;;;;;;;4.65;1.73;;;;;;;8.36;87.28;100492.94;4912934;29;20054;-82
2023/12/30 11:01:41;;;;;;;6.18;2.17;;;;;;;8.37;87.81;100497.25;4916619;29;20055;-84
2023/12/30 11:04:11;;;;;;;5.25;1.42;;;;;;;8.15;87.80;100491.22;4915354;29;20048;-84
2023/12/30 11:06:55;;;;;;;7.38;2.13;;;;;;;8.34;87.56;100497.28;4934275;29;20059;-84
2023/12/30 11:09:27;;;;;;;6.18;1.63;;;;;;;8.42;87.35;100511.16;4916392;29;20061;-80
2023/12/30 11:11:56;;;;;;;7.07;1.35;;;;;;;8.39;87.09;100493.78;4924615;29;20073;-82
2023/12/30 11:14:23;;;;;;;7.60;1.63;;;;;;;8.40;86.82;100492.91;4918061;29;20075;-81
2023/12/30 11:16:51;;;;;;;8.25;2.08;;;;;;;8.44;86.85;100499.84;4946962;29;20055;-83
2023/12/30 11:19:32;;;;;;;8.43;2.08;;;;;;;8.50;87.25;100496.41;4928208;29;20051;-82
2023/12/30 11:22:01;;;;;;;6.72;2.60;;;;;;;8.60;86.52;100507.69;4931604;29;20047;-82
2023/12/30 11:24:31;;;;;;;7.60;1.83;;;;;;;8.62;85.57;100492.91;4919332;29;20496;-82
2023/12/30 11:26:58;;;;;;;2.65;1.67;;;;;;;8.72;86.45;100491.09;4913468;29;20074;-82
2023/12/30 11:29:30;;;;;;;6.25;1.85;;;;;;;8.65;84.92;100489.41;4940120;29;20043;-81